sensor_id;sensor_type;location;lat;lon;timestamp;temperature;humidity
27114;DHT22;14648;49.730;8.614;2022-11-20T00:01:27;5.70;70.80
27114;DHT22;14648;49.730;8.614;2022-11-20T00:03:56;5.70;70.70
27114;DHT22;14648;49.730;8.614;2022-11-20T00:06:23;5.70;70.70
27114;DHT22;14648;49.730;8.614;2022-11-20T00:08:54;5.60;70.60
27114;DHT22;14648;49.730;8.614;2022-11-20T00:11:22;5.60;70.70
27114;DHT22;14648;49.730;8.614;2022-11-20T00:13:52;5.60;70.70
27114;DHT22;14648;49.730;8.614;2022-11-20T00:16:21;5.60;70.70
27114;DHT22;14648;49.730;8.614;2022-11-20T00:18:48;5.60;70.60
27114;DHT22;14648;49.730;8.614;2022-11-20T00:21:23;5.60;70.80
27114;DHT22;14648;49.730;8.614;2022-11-20T00:23:52;5.60;70.80
27114;DHT22;14648;49.730;8.614;2022-11-20T00:26:20;5.60;70.80
27114;DHT22;14648;49.730;8.614;2022-11-20T00:28:52;5.60;70.80
27114;DHT22;14648;49.730;8.614;2022-11-20T00:31:19;5.60;70.80
27114;DHT22;14648;49.730;8.614;2022-11-20T00:33:45;5.60;70.80
27114;DHT22;14648;49.730;8.614;2022-11-20T00:36:17;5.60;70.80
27114;DHT22;14648;49.730;8.614;2022-11-20T00:38:44;5.60;70.90
27114;DHT22;14648;49.730;8.614;2022-11-20T00:41:13;5.50;71.60
27114;DHT22;14648;49.730;8.614;2022-11-20T00:43:40;5.50;70.80
27114;DHT22;14648;49.730;8.614;2022-11-20T00:48:44;5.40;71.00
27114;DHT22;14648;49.730;8.614;2022-11-20T00:51:12;5.40;71.10
27114;DHT22;14648;49.730;8.614;2022-11-20T00:53:39;5.50;71.20
27114;DHT22;14648;49.730;8.614;2022-11-20T00:56:07;5.50;71.10
27114;DHT22;14648;49.730;8.614;2022-11-20T00:58:37;5.50;71.10
27114;DHT22;14648;49.730;8.614;2022-11-20T01:03:43;5.40;71.10
27114;DHT22;14648;49.730;8.614;2022-11-20T01:06:13;5.40;71.20
27114;DHT22;14648;49.730;8.614;2022-11-20T01:08:47;5.40;71.30
27114;DHT22;14648;49.730;8.614;2022-11-20T01:11:17;5.30;71.30
27114;DHT22;14648;49.730;8.614;2022-11-20T01:13:49;5.30;71.30
27114;DHT22;14648;49.730;8.614;2022-11-20T01:16:27;5.30;71.30
27114;DHT22;14648;49.730;8.614;2022-11-20T01:18:57;5.30;71.40
27114;DHT22;14648;49.730;8.614;2022-11-20T01:21:32;5.30;71.40
27114;DHT22;14648;49.730;8.614;2022-11-20T01:24:00;5.30;71.30
27114;DHT22;14648;49.730;8.614;2022-11-20T01:26:28;5.30;71.30
27114;DHT22;14648;49.730;8.614;2022-11-20T01:28:56;5.30;71.40
27114;DHT22;14648;49.730;8.614;2022-11-20T01:31:36;5.30;71.40
27114;DHT22;14648;49.730;8.614;2022-11-20T01:34:08;5.20;71.30
27114;DHT22;14648;49.730;8.614;2022-11-20T01:36:36;5.20;71.30
27114;DHT22;14648;49.730;8.614;2022-11-20T01:39:20;5.20;71.30
27114;DHT22;14648;49.730;8.614;2022-11-20T01:41:49;5.20;71.50
27114;DHT22;14648;49.730;8.614;2022-11-20T01:44:48;5.20;71.40
27114;DHT22;14648;49.730;8.614;2022-11-20T01:48:00;5.20;71.50
27114;DHT22;14648;49.730;8.614;2022-11-20T01:50:24;5.20;71.40
27114;DHT22;14648;49.730;8.614;2022-11-20T01:52:55;5.20;71.40
27114;DHT22;14648;49.730;8.614;2022-11-20T01:55:32;5.30;71.60
27114;DHT22;14648;49.730;8.614;2022-11-20T01:58:01;5.30;71.50
27114;DHT22;14648;49.730;8.614;2022-11-20T02:00:28;5.20;71.50
27114;DHT22;14648;49.730;8.614;2022-11-20T02:03:00;5.30;71.70
27114;DHT22;14648;49.730;8.614;2022-11-20T02:08:18;5.30;71.60
27114;DHT22;14648;49.730;8.614;2022-11-20T02:10:44;5.20;71.40
27114;DHT22;14648;49.730;8.614;2022-11-20T02:13:10;5.20;71.50
27114;DHT22;14648;49.730;8.614;2022-11-20T02:15:55;5.20;71.60
27114;DHT22;14648;49.730;8.614;2022-11-20T02:18:21;5.20;71.60
27114;DHT22;14648;49.730;8.614;2022-11-20T02:20:50;5.20;71.60
27114;DHT22;14648;49.730;8.614;2022-11-20T02:23:33;5.30;71.80
27114;DHT22;14648;49.730;8.614;2022-11-20T02:26:06;5.20;71.60
27114;DHT22;14648;49.730;8.614;2022-11-20T02:28:34;5.20;71.60
27114;DHT22;14648;49.730;8.614;2022-11-20T02:31:00;5.20;71.80
27114;DHT22;14648;49.730;8.614;2022-11-20T02:33:26;5.20;71.90
27114;DHT22;14648;49.730;8.614;2022-11-20T02:35:52;5.30;71.80
27114;DHT22;14648;49.730;8.614;2022-11-20T02:38:18;5.30;71.80
27114;DHT22;14648;49.730;8.614;2022-11-20T02:40:43;5.30;71.70
27114;DHT22;14648;49.730;8.614;2022-11-20T02:43:09;5.30;71.70
27114;DHT22;14648;49.730;8.614;2022-11-20T02:45:35;5.30;71.70
27114;DHT22;14648;49.730;8.614;2022-11-20T02:48:01;5.30;71.70
27114;DHT22;14648;49.730;8.614;2022-11-20T02:50:27;5.30;71.80
27114;DHT22;14648;49.730;8.614;2022-11-20T02:52:52;5.30;71.90
27114;DHT22;14648;49.730;8.614;2022-11-20T02:55:18;5.30;71.90
27114;DHT22;14648;49.730;8.614;2022-11-20T02:57:44;5.30;71.90
27114;DHT22;14648;49.730;8.614;2022-11-20T03:00:10;5.30;71.90
27114;DHT22;14648;49.730;8.614;2022-11-20T03:02:36;5.30;71.80
27114;DHT22;14648;49.730;8.614;2022-11-20T03:05:02;5.30;71.80
27114;DHT22;14648;49.730;8.614;2022-11-20T03:07:28;5.30;71.90
27114;DHT22;14648;49.730;8.614;2022-11-20T03:09:53;5.30;71.90
27114;DHT22;14648;49.730;8.614;2022-11-20T03:12:19;5.30;71.80
27114;DHT22;14648;49.730;8.614;2022-11-20T03:14:45;5.30;71.80
27114;DHT22;14648;49.730;8.614;2022-11-20T03:17:10;5.30;71.90
27114;DHT22;14648;49.730;8.614;2022-11-20T03:19:36;5.30;71.90
27114;DHT22;14648;49.730;8.614;2022-11-20T03:22:02;5.30;72.00
27114;DHT22;14648;49.730;8.614;2022-11-20T03:24:27;5.40;72.00
27114;DHT22;14648;49.730;8.614;2022-11-20T03:26:53;5.40;72.00
27114;DHT22;14648;49.730;8.614;2022-11-20T03:29:18;5.40;71.90
27114;DHT22;14648;49.730;8.614;2022-11-20T03:31:44;5.40;71.90
27114;DHT22;14648;49.730;8.614;2022-11-20T03:34:11;5.40;71.90
27114;DHT22;14648;49.730;8.614;2022-11-20T03:36:38;5.40;71.90
27114;DHT22;14648;49.730;8.614;2022-11-20T03:39:05;5.40;71.90
27114;DHT22;14648;49.730;8.614;2022-11-20T03:41:35;5.40;71.90
27114;DHT22;14648;49.730;8.614;2022-11-20T03:44:04;5.40;72.00
27114;DHT22;14648;49.730;8.614;2022-11-20T03:46:31;5.40;71.90
27114;DHT22;14648;49.730;8.614;2022-11-20T03:48:57;5.40;72.00
27114;DHT22;14648;49.730;8.614;2022-11-20T03:51:28;5.40;72.00
27114;DHT22;14648;49.730;8.614;2022-11-20T03:53:58;5.50;72.10
27114;DHT22;14648;49.730;8.614;2022-11-20T03:56:30;5.50;72.10
27114;DHT22;14648;49.730;8.614;2022-11-20T03:58:57;5.50;72.00
27114;DHT22;14648;49.730;8.614;2022-11-20T04:01:35;5.50;72.00
27114;DHT22;14648;49.730;8.614;2022-11-20T04:04:02;5.50;72.00
27114;DHT22;14648;49.730;8.614;2022-11-20T04:06:38;5.50;72.00
27114;DHT22;14648;49.730;8.614;2022-11-20T04:09:04;5.50;71.90
27114;DHT22;14648;49.730;8.614;2022-11-20T04:11:36;5.60;71.90
27114;DHT22;14648;49.730;8.614;2022-11-20T04:14:04;5.60;71.90
27114;DHT22;14648;49.730;8.614;2022-11-20T04:16:33;5.60;71.80
27114;DHT22;14648;49.730;8.614;2022-11-20T04:19:02;5.60;71.90
27114;DHT22;14648;49.730;8.614;2022-11-20T04:21:29;5.60;71.90
27114;DHT22;14648;49.730;8.614;2022-11-20T04:23:55;5.60;71.90
27114;DHT22;14648;49.730;8.614;2022-11-20T04:26:23;5.60;71.90
27114;DHT22;14648;49.730;8.614;2022-11-20T04:28:50;5.60;71.80
27114;DHT22;14648;49.730;8.614;2022-11-20T04:31:18;5.70;71.80
27114;DHT22;14648;49.730;8.614;2022-11-20T04:33:46;5.60;72.50
27114;DHT22;14648;49.730;8.614;2022-11-20T04:36:13;5.70;71.80
27114;DHT22;14648;49.730;8.614;2022-11-20T04:38:43;5.70;71.80
27114;DHT22;14648;49.730;8.614;2022-11-20T04:41:16;5.60;71.80
27114;DHT22;14648;49.730;8.614;2022-11-20T04:43:55;5.70;71.80
27114;DHT22;14648;49.730;8.614;2022-11-20T04:46:25;5.70;71.80
27114;DHT22;14648;49.730;8.614;2022-11-20T04:48:52;5.60;71.60
27114;DHT22;14648;49.730;8.614;2022-11-20T04:51:18;5.60;71.60
27114;DHT22;14648;49.730;8.614;2022-11-20T04:53:43;5.60;71.70
27114;DHT22;14648;49.730;8.614;2022-11-20T04:56:10;5.60;71.70
27114;DHT22;14648;49.730;8.614;2022-11-20T04:58:37;5.70;71.80
27114;DHT22;14648;49.730;8.614;2022-11-20T05:01:05;5.70;71.70
27114;DHT22;14648;49.730;8.614;2022-11-20T05:03:31;5.60;71.60
27114;DHT22;14648;49.730;8.614;2022-11-20T05:06:00;5.70;71.80
27114;DHT22;14648;49.730;8.614;2022-11-20T05:08:28;5.60;71.80
27114;DHT22;14648;49.730;8.614;2022-11-20T05:11:02;5.60;71.80
27114;DHT22;14648;49.730;8.614;2022-11-20T05:13:29;5.60;71.70
27114;DHT22;14648;49.730;8.614;2022-11-20T05:15:55;5.70;71.80
27114;DHT22;14648;49.730;8.614;2022-11-20T05:18:21;5.70;71.80
27114;DHT22;14648;49.730;8.614;2022-11-20T05:20:46;5.70;71.90
27114;DHT22;14648;49.730;8.614;2022-11-20T05:23:12;5.70;71.90
27114;DHT22;14648;49.730;8.614;2022-11-20T05:25:37;5.70;71.90
27114;DHT22;14648;49.730;8.614;2022-11-20T05:28:03;5.60;71.80
27114;DHT22;14648;49.730;8.614;2022-11-20T05:30:30;5.70;71.90
27114;DHT22;14648;49.730;8.614;2022-11-20T05:32:55;5.60;71.70
27114;DHT22;14648;49.730;8.614;2022-11-20T05:35:21;5.70;71.80
27114;DHT22;14648;49.730;8.614;2022-11-20T05:37:46;5.70;71.80
27114;DHT22;14648;49.730;8.614;2022-11-20T05:40:12;5.70;71.90
27114;DHT22;14648;49.730;8.614;2022-11-20T05:42:38;5.70;71.80
27114;DHT22;14648;49.730;8.614;2022-11-20T05:45:04;5.70;71.80
27114;DHT22;14648;49.730;8.614;2022-11-20T05:47:33;5.70;71.70
27114;DHT22;14648;49.730;8.614;2022-11-20T05:49:59;5.70;71.70
27114;DHT22;14648;49.730;8.614;2022-11-20T05:52:28;5.70;71.80
27114;DHT22;14648;49.730;8.614;2022-11-20T05:54:54;5.80;71.70
27114;DHT22;14648;49.730;8.614;2022-11-20T05:57:20;5.80;71.80
27114;DHT22;14648;49.730;8.614;2022-11-20T05:59:46;5.80;71.80
27114;DHT22;14648;49.730;8.614;2022-11-20T06:02:11;5.80;71.80
27114;DHT22;14648;49.730;8.614;2022-11-20T06:04:37;5.80;71.80
27114;DHT22;14648;49.730;8.614;2022-11-20T06:07:04;5.80;71.80
27114;DHT22;14648;49.730;8.614;2022-11-20T06:09:30;5.80;71.80
27114;DHT22;14648;49.730;8.614;2022-11-20T06:11:56;5.80;71.80
27114;DHT22;14648;49.730;8.614;2022-11-20T06:14:21;5.90;72.00
27114;DHT22;14648;49.730;8.614;2022-11-20T06:16:47;5.90;71.90
27114;DHT22;14648;49.730;8.614;2022-11-20T06:19:13;5.90;71.80
27114;DHT22;14648;49.730;8.614;2022-11-20T06:21:38;5.80;71.70
27114;DHT22;14648;49.730;8.614;2022-11-20T06:24:04;5.80;71.80
27114;DHT22;14648;49.730;8.614;2022-11-20T06:26:30;5.80;71.80
27114;DHT22;14648;49.730;8.614;2022-11-20T06:28:56;5.80;71.70
27114;DHT22;14648;49.730;8.614;2022-11-20T06:31:24;5.80;71.80
27114;DHT22;14648;49.730;8.614;2022-11-20T06:33:51;5.80;71.80
27114;DHT22;14648;49.730;8.614;2022-11-20T06:36:19;5.80;71.80
27114;DHT22;14648;49.730;8.614;2022-11-20T06:38:47;5.80;71.80
27114;DHT22;14648;49.730;8.614;2022-11-20T06:41:15;5.80;71.80
27114;DHT22;14648;49.730;8.614;2022-11-20T06:43:44;5.80;71.90
27114;DHT22;14648;49.730;8.614;2022-11-20T06:46:12;5.80;72.00
27114;DHT22;14648;49.730;8.614;2022-11-20T06:48:38;5.80;71.90
27114;DHT22;14648;49.730;8.614;2022-11-20T06:51:06;5.80;71.90
27114;DHT22;14648;49.730;8.614;2022-11-20T06:53:33;5.80;71.80
27114;DHT22;14648;49.730;8.614;2022-11-20T06:55:59;5.80;71.80
27114;DHT22;14648;49.730;8.614;2022-11-20T06:58:30;5.80;71.80
27114;DHT22;14648;49.730;8.614;2022-11-20T07:01:00;5.90;72.00
27114;DHT22;14648;49.730;8.614;2022-11-20T07:03:31;5.90;72.00
27114;DHT22;14648;49.730;8.614;2022-11-20T07:05:58;5.90;71.90
27114;DHT22;14648;49.730;8.614;2022-11-20T07:08:28;5.90;71.90
27114;DHT22;14648;49.730;8.614;2022-11-20T07:10:59;5.90;71.90
27114;DHT22;14648;49.730;8.614;2022-11-20T07:13:28;5.90;71.90
27114;DHT22;14648;49.730;8.614;2022-11-20T07:15:54;5.90;72.00
27114;DHT22;14648;49.730;8.614;2022-11-20T07:18:20;6.00;71.90
27114;DHT22;14648;49.730;8.614;2022-11-20T07:20:46;6.00;72.00
27114;DHT22;14648;49.730;8.614;2022-11-20T07:23:11;6.00;72.00
27114;DHT22;14648;49.730;8.614;2022-11-20T07:25:37;6.00;72.00
27114;DHT22;14648;49.730;8.614;2022-11-20T07:28:03;6.00;72.00
27114;DHT22;14648;49.730;8.614;2022-11-20T07:30:29;6.00;72.00
27114;DHT22;14648;49.730;8.614;2022-11-20T07:32:56;6.00;72.00
27114;DHT22;14648;49.730;8.614;2022-11-20T07:35:23;6.00;71.90
27114;DHT22;14648;49.730;8.614;2022-11-20T07:37:49;6.00;72.00
27114;DHT22;14648;49.730;8.614;2022-11-20T07:40:15;5.90;72.00
27114;DHT22;14648;49.730;8.614;2022-11-20T07:42:49;6.00;72.00
27114;DHT22;14648;49.730;8.614;2022-11-20T07:45:19;6.00;71.90
27114;DHT22;14648;49.730;8.614;2022-11-20T07:47:45;5.90;71.90
27114;DHT22;14648;49.730;8.614;2022-11-20T07:50:11;5.90;71.90
27114;DHT22;14648;49.730;8.614;2022-11-20T07:52:37;5.90;72.00
27114;DHT22;14648;49.730;8.614;2022-11-20T07:55:04;5.90;72.10
27114;DHT22;14648;49.730;8.614;2022-11-20T07:57:30;5.90;72.10
27114;DHT22;14648;49.730;8.614;2022-11-20T07:59:56;5.80;72.10
27114;DHT22;14648;49.730;8.614;2022-11-20T08:02:21;5.80;72.00
27114;DHT22;14648;49.730;8.614;2022-11-20T08:04:47;5.80;72.20
27114;DHT22;14648;49.730;8.614;2022-11-20T08:07:13;5.80;72.20
27114;DHT22;14648;49.730;8.614;2022-11-20T08:09:38;5.80;72.10
27114;DHT22;14648;49.730;8.614;2022-11-20T08:12:04;5.80;72.10
27114;DHT22;14648;49.730;8.614;2022-11-20T08:14:48;5.70;72.10
27114;DHT22;14648;49.730;8.614;2022-11-20T08:17:14;5.70;71.90
27114;DHT22;14648;49.730;8.614;2022-11-20T08:19:39;5.70;71.90
27114;DHT22;14648;49.730;8.614;2022-11-20T08:22:05;5.60;72.00
27114;DHT22;14648;49.730;8.614;2022-11-20T08:24:31;5.60;72.20
27114;DHT22;14648;49.730;8.614;2022-11-20T08:27:00;5.60;72.30
27114;DHT22;14648;49.730;8.614;2022-11-20T08:29:26;5.60;72.20
27114;DHT22;14648;49.730;8.614;2022-11-20T08:31:52;5.60;72.30
27114;DHT22;14648;49.730;8.614;2022-11-20T08:34:18;5.60;72.20
27114;DHT22;14648;49.730;8.614;2022-11-20T08:36:44;5.60;72.20
27114;DHT22;14648;49.730;8.614;2022-11-20T08:39:13;5.60;72.10
27114;DHT22;14648;49.730;8.614;2022-11-20T08:41:39;5.60;72.10
27114;DHT22;14648;49.730;8.614;2022-11-20T08:44:06;5.60;72.10
27114;DHT22;14648;49.730;8.614;2022-11-20T08:46:34;5.60;72.20
27114;DHT22;14648;49.730;8.614;2022-11-20T08:49:03;5.60;72.30
27114;DHT22;14648;49.730;8.614;2022-11-20T08:51:30;5.60;72.20
27114;DHT22;14648;49.730;8.614;2022-11-20T08:53:55;5.60;72.10
27114;DHT22;14648;49.730;8.614;2022-11-20T08:56:21;5.60;72.20
27114;DHT22;14648;49.730;8.614;2022-11-20T08:58:47;5.60;72.30
27114;DHT22;14648;49.730;8.614;2022-11-20T09:01:12;5.70;72.50
27114;DHT22;14648;49.730;8.614;2022-11-20T09:03:38;5.70;72.40
27114;DHT22;14648;49.730;8.614;2022-11-20T09:06:06;5.70;72.30
27114;DHT22;14648;49.730;8.614;2022-11-20T09:08:33;5.70;72.30
27114;DHT22;14648;49.730;8.614;2022-11-20T09:11:01;5.70;72.50
27114;DHT22;14648;49.730;8.614;2022-11-20T09:13:28;5.80;72.50
27114;DHT22;14648;49.730;8.614;2022-11-20T09:16:00;5.80;72.50
27114;DHT22;14648;49.730;8.614;2022-11-20T09:18:34;5.90;72.60
27114;DHT22;14648;49.730;8.614;2022-11-20T09:21:04;5.90;72.50
27114;DHT22;14648;49.730;8.614;2022-11-20T09:23:33;5.90;72.60
27114;DHT22;14648;49.730;8.614;2022-11-20T09:26:04;6.00;72.60
27114;DHT22;14648;49.730;8.614;2022-11-20T09:28:31;6.00;72.60
27114;DHT22;14648;49.730;8.614;2022-11-20T09:30:57;6.00;72.70
27114;DHT22;14648;49.730;8.614;2022-11-20T09:33:23;6.10;72.70
27114;DHT22;14648;49.730;8.614;2022-11-20T09:35:49;6.10;72.80
27114;DHT22;14648;49.730;8.614;2022-11-20T09:38:14;6.20;72.70
27114;DHT22;14648;49.730;8.614;2022-11-20T09:41:03;6.20;72.70
27114;DHT22;14648;49.730;8.614;2022-11-20T09:43:49;6.20;72.80
27114;DHT22;14648;49.730;8.614;2022-11-20T09:47:02;6.20;72.70
27114;DHT22;14648;49.730;8.614;2022-11-20T09:49:59;6.30;72.80
27114;DHT22;14648;49.730;8.614;2022-11-20T09:55:34;6.30;72.80
27114;DHT22;14648;49.730;8.614;2022-11-20T09:58:00;6.40;72.70
27114;DHT22;14648;49.730;8.614;2022-11-20T10:00:28;6.40;72.80
27114;DHT22;14648;49.730;8.614;2022-11-20T10:03:10;6.40;72.90
27114;DHT22;14648;49.730;8.614;2022-11-20T10:05:54;6.40;72.90
27114;DHT22;14648;49.730;8.614;2022-11-20T10:08:35;6.40;72.80
27114;DHT22;14648;49.730;8.614;2022-11-20T10:14:18;6.40;73.00
27114;DHT22;14648;49.730;8.614;2022-11-20T10:17:12;6.40;73.10
27114;DHT22;14648;49.730;8.614;2022-11-20T10:19:47;6.40;73.10
27114;DHT22;14648;49.730;8.614;2022-11-20T10:25:38;6.40;73.10
27114;DHT22;14648;49.730;8.614;2022-11-20T10:28:34;6.50;73.20
27114;DHT22;14648;49.730;8.614;2022-11-20T10:31:08;6.50;73.20
27114;DHT22;14648;49.730;8.614;2022-11-20T10:33:40;6.50;73.30
27114;DHT22;14648;49.730;8.614;2022-11-20T10:36:08;6.50;73.10
27114;DHT22;14648;49.730;8.614;2022-11-20T10:39:01;6.50;73.30
27114;DHT22;14648;49.730;8.614;2022-11-20T10:41:38;6.50;73.30
27114;DHT22;14648;49.730;8.614;2022-11-20T10:44:17;6.50;73.30
27114;DHT22;14648;49.730;8.614;2022-11-20T10:47:05;6.50;73.30
27114;DHT22;14648;49.730;8.614;2022-11-20T10:49:38;6.60;73.30
27114;DHT22;14648;49.730;8.614;2022-11-20T10:52:28;6.60;73.40
27114;DHT22;14648;49.730;8.614;2022-11-20T10:55:27;6.60;73.50
27114;DHT22;14648;49.730;8.614;2022-11-20T10:58:10;6.60;73.30
27114;DHT22;14648;49.730;8.614;2022-11-20T11:00:38;6.70;73.40
27114;DHT22;14648;49.730;8.614;2022-11-20T11:03:21;6.60;73.20
27114;DHT22;14648;49.730;8.614;2022-11-20T11:06:19;6.70;73.30
27114;DHT22;14648;49.730;8.614;2022-11-20T11:08:47;6.60;73.50
27114;DHT22;14648;49.730;8.614;2022-11-20T11:11:28;6.70;73.40
27114;DHT22;14648;49.730;8.614;2022-11-20T11:14:10;6.60;73.30
27114;DHT22;14648;49.730;8.614;2022-11-20T11:19:14;6.60;73.50
27114;DHT22;14648;49.730;8.614;2022-11-20T11:21:48;6.60;73.50
27114;DHT22;14648;49.730;8.614;2022-11-20T11:24:21;6.70;73.60
27114;DHT22;14648;49.730;8.614;2022-11-20T11:29:23;6.70;73.70
27114;DHT22;14648;49.730;8.614;2022-11-20T11:31:49;6.70;73.70
27114;DHT22;14648;49.730;8.614;2022-11-20T11:34:16;6.70;73.80
27114;DHT22;14648;49.730;8.614;2022-11-20T11:36:57;6.80;73.80
27114;DHT22;14648;49.730;8.614;2022-11-20T11:39:24;6.80;73.90
27114;DHT22;14648;49.730;8.614;2022-11-20T11:41:51;6.80;73.80
27114;DHT22;14648;49.730;8.614;2022-11-20T11:44:22;6.90;74.10
27114;DHT22;14648;49.730;8.614;2022-11-20T11:47:17;6.90;74.00
27114;DHT22;14648;49.730;8.614;2022-11-20T11:49:48;7.00;74.00
27114;DHT22;14648;49.730;8.614;2022-11-20T11:52:20;7.00;74.70
27114;DHT22;14648;49.730;8.614;2022-11-20T11:54:53;7.00;74.10
27114;DHT22;14648;49.730;8.614;2022-11-20T12:00:13;7.00;74.30
27114;DHT22;14648;49.730;8.614;2022-11-20T12:05:23;7.10;74.30
27114;DHT22;14648;49.730;8.614;2022-11-20T12:10:57;7.20;74.40
27114;DHT22;14648;49.730;8.614;2022-11-20T12:13:40;7.20;74.50
27114;DHT22;14648;49.730;8.614;2022-11-20T12:16:12;7.30;74.60
27114;DHT22;14648;49.730;8.614;2022-11-20T12:18:39;7.30;74.50
27114;DHT22;14648;49.730;8.614;2022-11-20T12:21:32;7.30;74.60
27114;DHT22;14648;49.730;8.614;2022-11-20T12:24:39;7.40;74.80
27114;DHT22;14648;49.730;8.614;2022-11-20T12:30:12;7.50;74.70
27114;DHT22;14648;49.730;8.614;2022-11-20T12:32:49;7.50;74.80
27114;DHT22;14648;49.730;8.614;2022-11-20T12:38:35;7.60;74.80
27114;DHT22;14648;49.730;8.614;2022-11-20T12:41:43;7.60;74.90
27114;DHT22;14648;49.730;8.614;2022-11-20T12:47:55;7.60;74.70
27114;DHT22;14648;49.730;8.614;2022-11-20T12:50:59;7.60;74.70
27114;DHT22;14648;49.730;8.614;2022-11-20T12:57:14;7.70;75.10
27114;DHT22;14648;49.730;8.614;2022-11-20T13:03:06;7.80;75.10
27114;DHT22;14648;49.730;8.614;2022-11-20T13:08:35;7.80;75.00
27114;DHT22;14648;49.730;8.614;2022-11-20T13:11:25;7.80;74.90
27114;DHT22;14648;49.730;8.614;2022-11-20T13:14:08;7.80;75.00
27114;DHT22;14648;49.730;8.614;2022-11-20T13:16:50;7.80;75.00
27114;DHT22;14648;49.730;8.614;2022-11-20T13:19:19;7.80;75.10
27114;DHT22;14648;49.730;8.614;2022-11-20T13:21:47;7.90;75.90
27114;DHT22;14648;49.730;8.614;2022-11-20T13:24:21;7.90;75.20
27114;DHT22;14648;49.730;8.614;2022-11-20T13:29:42;7.90;75.00
27114;DHT22;14648;49.730;8.614;2022-11-20T13:32:17;8.00;74.90
27114;DHT22;14648;49.730;8.614;2022-11-20T13:34:56;8.00;74.90
27114;DHT22;14648;49.730;8.614;2022-11-20T13:37:34;8.00;75.00
27114;DHT22;14648;49.730;8.614;2022-11-20T13:42:37;8.00;74.90
27114;DHT22;14648;49.730;8.614;2022-11-20T13:45:11;8.00;74.90
27114;DHT22;14648;49.730;8.614;2022-11-20T13:47:51;8.00;75.00
27114;DHT22;14648;49.730;8.614;2022-11-20T13:50:18;8.00;75.00
27114;DHT22;14648;49.730;8.614;2022-11-20T13:55:45;8.00;74.90
27114;DHT22;14648;49.730;8.614;2022-11-20T14:01:20;8.10;74.90
27114;DHT22;14648;49.730;8.614;2022-11-20T14:03:47;8.10;74.80
27114;DHT22;14648;49.730;8.614;2022-11-20T14:06:29;8.10;74.60
27114;DHT22;14648;49.730;8.614;2022-11-20T14:08:58;8.10;74.60
27114;DHT22;14648;49.730;8.614;2022-11-20T14:11:29;8.20;74.60
27114;DHT22;14648;49.730;8.614;2022-11-20T14:14:01;8.20;74.50
27114;DHT22;14648;49.730;8.614;2022-11-20T14:16:35;8.30;74.50
27114;DHT22;14648;49.730;8.614;2022-11-20T14:22:10;8.30;74.30
27114;DHT22;14648;49.730;8.614;2022-11-20T14:24:47;8.40;74.30
27114;DHT22;14648;49.730;8.614;2022-11-20T14:27:19;8.50;74.10
27114;DHT22;14648;49.730;8.614;2022-11-20T14:29:48;8.50;74.10
27114;DHT22;14648;49.730;8.614;2022-11-20T14:32:19;8.50;74.00
27114;DHT22;14648;49.730;8.614;2022-11-20T14:34:49;8.50;73.90
27114;DHT22;14648;49.730;8.614;2022-11-20T14:37:24;8.60;73.90
27114;DHT22;14648;49.730;8.614;2022-11-20T14:39:53;8.50;73.90
27114;DHT22;14648;49.730;8.614;2022-11-20T14:42:27;8.50;73.90
27114;DHT22;14648;49.730;8.614;2022-11-20T14:44:58;8.60;73.90
27114;DHT22;14648;49.730;8.614;2022-11-20T14:47:31;8.60;74.00
27114;DHT22;14648;49.730;8.614;2022-11-20T14:49:57;8.50;73.90
27114;DHT22;14648;49.730;8.614;2022-11-20T14:52:26;8.60;73.90
27114;DHT22;14648;49.730;8.614;2022-11-20T14:54:55;8.60;73.80
27114;DHT22;14648;49.730;8.614;2022-11-20T14:57:32;8.60;73.80
27114;DHT22;14648;49.730;8.614;2022-11-20T15:02:45;8.60;73.70
27114;DHT22;14648;49.730;8.614;2022-11-20T15:05:12;8.50;73.70
27114;DHT22;14648;49.730;8.614;2022-11-20T15:07:41;8.60;73.60
27114;DHT22;14648;49.730;8.614;2022-11-20T15:13:02;8.50;73.30
27114;DHT22;14648;49.730;8.614;2022-11-20T15:15:46;8.60;73.30
27114;DHT22;14648;49.730;8.614;2022-11-20T15:18:15;8.60;73.20
27114;DHT22;14648;49.730;8.614;2022-11-20T15:20:45;8.60;73.10
27114;DHT22;14648;49.730;8.614;2022-11-20T15:23:13;8.60;72.90
27114;DHT22;14648;49.730;8.614;2022-11-20T15:25:44;8.60;72.80
27114;DHT22;14648;49.730;8.614;2022-11-20T15:31:01;8.60;72.50
27114;DHT22;14648;49.730;8.614;2022-11-20T15:33:28;8.60;72.50
27114;DHT22;14648;49.730;8.614;2022-11-20T15:35:54;8.60;72.50
27114;DHT22;14648;49.730;8.614;2022-11-20T15:38:20;8.60;72.50
27114;DHT22;14648;49.730;8.614;2022-11-20T15:40:46;8.60;72.30
27114;DHT22;14648;49.730;8.614;2022-11-20T15:43:11;8.60;72.20
27114;DHT22;14648;49.730;8.614;2022-11-20T15:45:38;8.60;72.20
27114;DHT22;14648;49.730;8.614;2022-11-20T15:48:24;8.60;72.00
27114;DHT22;14648;49.730;8.614;2022-11-20T15:53:41;8.60;71.60
27114;DHT22;14648;49.730;8.614;2022-11-20T15:56:13;8.60;71.60
27114;DHT22;14648;49.730;8.614;2022-11-20T15:58:43;8.60;71.70
27114;DHT22;14648;49.730;8.614;2022-11-20T16:01:15;8.50;71.60
27114;DHT22;14648;49.730;8.614;2022-11-20T16:03:42;8.50;71.60
27114;DHT22;14648;49.730;8.614;2022-11-20T16:06:08;8.60;71.60
27114;DHT22;14648;49.730;8.614;2022-11-20T16:08:33;8.50;71.50
27114;DHT22;14648;49.730;8.614;2022-11-20T16:10:59;8.50;71.20
27114;DHT22;14648;49.730;8.614;2022-11-20T16:13:25;8.50;71.10
27114;DHT22;14648;49.730;8.614;2022-11-20T16:16:21;8.60;71.80
27114;DHT22;14648;49.730;8.614;2022-11-20T16:18:49;8.50;70.90
27114;DHT22;14648;49.730;8.614;2022-11-20T16:21:16;8.50;70.90
27114;DHT22;14648;49.730;8.614;2022-11-20T16:23:42;8.50;70.90
27114;DHT22;14648;49.730;8.614;2022-11-20T16:26:12;8.50;70.90
27114;DHT22;14648;49.730;8.614;2022-11-20T16:28:39;8.40;70.80
27114;DHT22;14648;49.730;8.614;2022-11-20T16:31:11;8.40;70.80
27114;DHT22;14648;49.730;8.614;2022-11-20T16:33:38;8.40;70.70
27114;DHT22;14648;49.730;8.614;2022-11-20T16:36:11;8.40;71.40
27114;DHT22;14648;49.730;8.614;2022-11-20T16:38:39;8.40;70.50
27114;DHT22;14648;49.730;8.614;2022-11-20T16:41:05;8.40;70.50
27114;DHT22;14648;49.730;8.614;2022-11-20T16:43:31;8.40;70.30
27114;DHT22;14648;49.730;8.614;2022-11-20T16:45:57;8.50;70.30
27114;DHT22;14648;49.730;8.614;2022-11-20T16:48:23;8.50;70.30
27114;DHT22;14648;49.730;8.614;2022-11-20T16:50:51;8.50;70.00
27114;DHT22;14648;49.730;8.614;2022-11-20T16:53:18;8.50;69.70
27114;DHT22;14648;49.730;8.614;2022-11-20T16:55:45;8.50;69.60
27114;DHT22;14648;49.730;8.614;2022-11-20T16:58:11;8.50;69.50
27114;DHT22;14648;49.730;8.614;2022-11-20T17:00:39;8.40;69.50
27114;DHT22;14648;49.730;8.614;2022-11-20T17:03:06;8.50;69.40
27114;DHT22;14648;49.730;8.614;2022-11-20T17:05:32;8.40;69.10
27114;DHT22;14648;49.730;8.614;2022-11-20T17:07:59;8.40;69.00
27114;DHT22;14648;49.730;8.614;2022-11-20T17:10:25;8.40;69.00
27114;DHT22;14648;49.730;8.614;2022-11-20T17:12:51;8.40;69.00
27114;DHT22;14648;49.730;8.614;2022-11-20T17:15:16;8.30;69.10
27114;DHT22;14648;49.730;8.614;2022-11-20T17:17:42;8.30;69.20
27114;DHT22;14648;49.730;8.614;2022-11-20T17:20:09;8.30;69.20
27114;DHT22;14648;49.730;8.614;2022-11-20T17:22:36;8.30;69.20